createdAt,value
2018-11-26T00:00:44.346Z,6.70
2018-11-26T00:05:47.709Z,6.80
2018-11-26T00:11:05.986Z,6.90
2018-11-26T00:16:09.273Z,6.90
2018-11-26T00:21:17.519Z,7.00
2018-11-26T00:26:21.007Z,7.00
2018-11-26T00:31:24.308Z,7.10
2018-11-26T00:36:27.643Z,7.10
2018-11-26T00:41:30.961Z,7.10
2018-11-26T00:46:34.290Z,7.10
2018-11-26T00:51:37.782Z,7.00
2018-11-26T00:56:41.137Z,7.00
2018-11-26T01:01:44.710Z,7.10
2018-11-26T01:06:48.252Z,7.20
2018-11-26T01:11:51.769Z,7.30
2018-11-26T01:16:56.230Z,7.40
2018-11-26T01:21:59.617Z,7.40
2018-11-26T01:32:33.878Z,7.30
2018-11-26T01:37:37.409Z,7.30
2018-11-26T01:42:42.357Z,7.20
2018-11-26T01:47:49.283Z,7.20
2018-11-26T01:52:52.941Z,7.10
2018-11-26T01:57:57.186Z,7.10
2018-11-26T02:03:00.730Z,7.10
2018-11-26T02:08:04.170Z,7.10
2018-11-26T02:13:07.618Z,7.10
2018-11-26T02:18:11.538Z,7.10
2018-11-26T02:23:14.969Z,7.20
2018-11-26T02:28:18.495Z,7.00
2018-11-26T02:33:21.951Z,7.00
2018-11-26T02:38:25.421Z,6.90
2018-11-26T02:43:30.591Z,7.00
2018-11-26T02:48:35.976Z,6.90
2018-11-26T02:53:39.355Z,7.10
2018-11-26T02:58:43.847Z,7.00
2018-11-26T03:03:47.251Z,7.10
2018-11-26T03:08:50.669Z,7.00
2018-11-26T03:13:54.136Z,7.00
2018-11-26T03:18:57.663Z,7.00
2018-11-26T03:24:01.220Z,7.00
2018-11-26T03:29:04.900Z,7.00
2018-11-26T03:34:08.268Z,7.00
2018-11-26T03:39:12.558Z,6.90
2018-11-26T03:44:15.850Z,6.90
2018-11-26T03:49:19.366Z,7.00
2018-11-26T03:54:22.759Z,6.90
2018-11-26T03:59:27.613Z,6.90
2018-11-26T04:04:31.270Z,6.90
2018-11-26T04:09:34.795Z,6.80
2018-11-26T04:14:38.247Z,6.80
2018-11-26T04:19:41.667Z,6.60
2018-11-26T04:24:45.162Z,6.50
2018-11-26T04:29:48.593Z,6.40
2018-11-26T04:34:53.404Z,6.40
2018-11-26T04:39:56.809Z,6.40
2018-11-26T04:56:05.897Z,6.20
2018-11-26T05:01:13.059Z,6.10
2018-11-26T05:06:16.394Z,5.90
2018-11-26T05:11:20.472Z,5.90
2018-11-26T05:16:23.886Z,5.90
2018-11-26T05:21:28.445Z,5.90
2018-11-26T05:26:31.999Z,5.90
2018-11-26T05:31:35.399Z,6.00
2018-11-26T05:36:39.378Z,6.00
2018-11-26T05:41:42.806Z,6.10
2018-11-26T05:46:46.135Z,6.20
2018-11-26T05:51:50.284Z,6.10
2018-11-26T05:56:54.434Z,6.20
2018-11-26T06:01:58.895Z,6.20
2018-11-26T06:07:02.360Z,6.10
2018-11-26T06:12:05.819Z,6.10
2018-11-26T06:17:09.706Z,6.10
2018-11-26T06:22:13.204Z,6.00
2018-11-26T06:27:17.541Z,5.90
2018-11-26T06:38:02.453Z,6.00
2018-11-26T06:43:07.213Z,5.90
2018-11-26T06:53:59.896Z,6.10
2018-11-26T06:59:04.283Z,6.10
2018-11-26T07:04:08.757Z,6.10
2018-11-26T07:09:12.290Z,6.10
2018-11-26T07:14:16.929Z,6.10
2018-11-26T07:19:20.356Z,6.20
2018-11-26T07:24:23.885Z,6.10
2018-11-26T07:29:30.827Z,6.30
2018-11-26T07:34:34.900Z,6.30
2018-11-26T07:39:40.785Z,6.30
2018-11-26T07:44:44.244Z,6.30
2018-11-26T07:49:48.071Z,6.40
2018-11-26T07:54:52.032Z,6.50
2018-11-26T07:59:55.528Z,6.50
2018-11-26T08:04:58.997Z,6.50
2018-11-26T08:10:02.452Z,6.70
2018-11-26T08:15:12.316Z,6.80
2018-11-26T08:20:15.722Z,6.90
2018-11-26T08:25:20.193Z,6.90
2018-11-26T08:30:27.821Z,7.00
2018-11-26T08:35:33.545Z,7.00
2018-11-26T08:40:42.866Z,7.00
2018-11-26T08:45:54.478Z,7.20
2018-11-26T08:50:59.939Z,7.30
2018-11-26T08:56:03.368Z,7.50
2018-11-26T09:01:10.948Z,7.50
2018-11-26T09:06:14.361Z,7.60
2018-11-26T09:11:19.906Z,7.50
2018-11-26T09:16:23.256Z,7.50
2018-11-26T09:21:26.595Z,7.50
2018-11-26T09:26:30.085Z,7.50
2018-11-26T09:31:33.929Z,7.60
2018-11-26T09:36:37.304Z,7.60
2018-11-26T09:41:42.427Z,7.80
2018-11-26T09:46:47.153Z,7.80
2018-11-26T09:51:50.528Z,8.00
2018-11-26T09:56:53.862Z,8.10
2018-11-26T10:01:57.262Z,8.10
2018-11-26T10:07:00.628Z,8.10
2018-11-26T10:12:10.963Z,8.20
2018-11-26T10:17:14.444Z,8.20
2018-11-26T10:22:18.237Z,8.10
2018-11-26T10:27:22.498Z,8.30
2018-11-26T10:32:25.865Z,8.40
2018-11-26T10:42:33.479Z,8.60
2018-11-26T10:47:36.978Z,8.60
2018-11-26T10:52:43.638Z,8.70
2018-11-26T10:57:47.042Z,8.70
2018-11-26T11:02:51.051Z,8.90
2018-11-26T11:07:54.466Z,8.70
2018-11-26T11:12:58.021Z,8.80
2018-11-26T11:18:01.521Z,8.80
2018-11-26T11:23:04.892Z,8.80
2018-11-26T11:28:08.469Z,8.80
2018-11-26T11:38:14.574Z,8.60
2018-11-26T11:49:12.073Z,8.80
2018-11-26T11:54:15.581Z,9.00
2018-11-26T11:59:19.815Z,8.90
2018-11-26T12:04:28.392Z,8.90
2018-11-26T12:09:36.160Z,8.80
2018-11-26T12:14:49.272Z,8.80
2018-11-26T12:19:54.185Z,8.80
2018-11-26T12:25:05.595Z,9.00
2018-11-26T12:30:14.143Z,9.00
2018-11-26T12:36:22.890Z,9.10
2018-11-26T12:41:26.437Z,9.30
2018-11-26T12:46:30.005Z,9.30
2018-11-26T12:51:33.548Z,9.30
2018-11-26T12:56:37.013Z,9.20
2018-11-26T13:01:40.868Z,9.10
2018-11-26T13:06:47.637Z,9.00
2018-11-26T13:11:51.349Z,9.10
2018-11-26T13:16:55.263Z,9.10
2018-11-26T13:21:59.486Z,8.90
2018-11-26T13:27:03.631Z,8.90
2018-11-26T13:32:08.070Z,8.90
2018-11-26T13:37:11.694Z,9.00
2018-11-26T13:42:18.329Z,9.00
2018-11-26T13:47:21.787Z,8.90
2018-11-26T13:52:25.368Z,8.90
2018-11-26T13:57:31.433Z,8.80
2018-11-26T14:02:35.772Z,8.70
2018-11-26T14:23:56.081Z,8.70
2018-11-26T14:29:02.284Z,8.70
2018-11-26T14:34:06.956Z,8.60
2018-11-26T14:39:24.397Z,8.70
2018-11-26T14:44:31.254Z,8.60
2018-11-26T14:49:35.092Z,8.70
2018-11-26T14:54:39.204Z,8.60
2018-11-26T15:05:29.493Z,8.60
2018-11-26T15:10:49.400Z,8.60
2018-11-26T15:16:13.344Z,8.40
2018-11-26T15:21:17.370Z,8.30
2018-11-26T15:26:21.624Z,8.20
2018-11-26T15:31:26.709Z,8.10
2018-11-26T15:36:30.251Z,8.00
2018-11-26T15:41:33.575Z,8.00
2018-11-26T15:46:38.507Z,7.90
2018-11-26T15:51:41.748Z,8.00
2018-11-26T16:02:13.961Z,7.80
2018-11-26T16:07:17.250Z,7.80
2018-11-26T16:12:23.772Z,7.70
2018-11-26T16:17:27.120Z,7.60
2018-11-26T16:22:30.539Z,7.60
2018-11-26T16:27:33.858Z,7.50
2018-11-26T16:32:37.162Z,7.40
2018-11-26T16:37:40.462Z,7.50
2018-11-26T16:42:43.828Z,7.40
2018-11-26T16:53:23.888Z,7.40
2018-11-26T16:58:27.301Z,7.40
2018-11-26T17:03:30.614Z,7.40
2018-11-26T17:08:33.950Z,7.30
2018-11-26T17:13:37.283Z,7.30
2018-11-26T17:18:40.759Z,7.20
2018-11-26T17:23:44.164Z,7.20
2018-11-26T17:28:52.756Z,7.20
2018-11-26T17:33:56.200Z,7.20
2018-11-26T17:39:00.292Z,7.20
2018-11-26T17:44:04.264Z,7.20
2018-11-26T17:49:08.764Z,7.10
2018-11-26T17:54:12.104Z,7.20
2018-11-26T17:59:15.421Z,7.10
2018-11-26T18:04:18.891Z,7.20
2018-11-26T18:09:27.255Z,7.20
2018-11-26T18:14:30.634Z,7.30
2018-11-26T18:19:35.002Z,7.20
2018-11-26T18:24:38.660Z,7.30
2018-11-26T18:29:42.069Z,7.30
2018-11-26T18:34:45.569Z,7.20
2018-11-26T18:39:48.948Z,7.10
2018-11-26T18:44:52.418Z,7.00
2018-11-26T18:50:14.387Z,6.90
2018-11-26T18:55:19.444Z,7.00
2018-11-26T19:00:24.292Z,6.90
2018-11-26T19:05:27.719Z,7.00
2018-11-26T19:10:33.556Z,7.00
2018-11-26T19:15:38.348Z,6.80
2018-11-26T19:20:41.736Z,6.80
2018-11-26T19:25:45.727Z,6.80
2018-11-26T19:30:49.090Z,6.70
2018-11-26T19:35:52.419Z,6.60
2018-11-26T19:40:55.778Z,6.70
2018-11-26T19:45:59.195Z,6.70
2018-11-26T19:51:02.614Z,6.70
2018-11-26T19:56:06.123Z,6.60
2018-11-26T20:01:09.491Z,6.70
2018-11-26T20:06:22.211Z,6.60
2018-11-26T20:11:32.961Z,6.40
2018-11-26T20:21:54.387Z,6.20
2018-11-26T20:27:00.852Z,6.10
2018-11-26T20:32:05.676Z,6.20
2018-11-26T20:37:09.190Z,6.20
2018-11-26T20:42:14.435Z,6.20
2018-11-26T20:47:18.710Z,6.30
2018-11-26T20:52:24.198Z,6.20
2018-11-26T20:57:27.814Z,6.10
2018-11-26T21:02:31.293Z,5.90
2018-11-26T21:07:36.140Z,6.00
2018-11-26T21:12:44.341Z,5.90
2018-11-26T21:17:50.685Z,6.00
2018-11-26T21:22:54.584Z,5.90
2018-11-26T21:27:58.191Z,5.90
2018-11-26T21:33:01.854Z,5.90
2018-11-26T21:38:06.292Z,5.90
2018-11-26T21:43:11.052Z,6.00
2018-11-26T21:53:43.038Z,5.90
